Beauval, Canada
Current Conditions -  °F | °C
As of 10:00 AM on Saturday 25 Oct 2014 (Local Time) from CYVT Reporting Station
Broken Clouds Broken Clouds  
Wind Chill: -2°   Ceiling: 2000
Heat Index:   Visibility: 15mi
Dew Point: -2°   Wind: 12mph
Humidity: 75%   Direction: 280°W
Pressure: 29.95"   Gusts: NA
Location:  55.15°N, 107.62°W
Report Text: CYVT 251600Z 28010KT 15SM BKN020 02/M02 A2995 RMK SC6 SLP164
Loading
Personal Weather Stations






























Interactive Weather Map
Tropical Storm Tracking
New forecast layout! Learn more

10-Day Weather Forecast

Advertisements
Track Severe Weather on mobile